createdAt,value
2017-09-26T00:00:20.677Z,21.61
2017-09-26T00:00:52.319Z,21.61
2017-09-26T00:01:24.267Z,21.61
2017-09-26T00:01:56.828Z,21.61
2017-09-26T00:02:28.474Z,21.62
2017-09-26T00:03:00.113Z,21.63
2017-09-26T00:03:31.725Z,21.63
2017-09-26T00:04:03.345Z,21.63
2017-09-26T00:04:34.965Z,21.63
2017-09-26T00:05:06.585Z,21.63
2017-09-26T00:05:38.330Z,21.64
2017-09-26T00:06:09.967Z,21.63
2017-09-26T00:06:41.653Z,21.63
2017-09-26T00:07:13.293Z,21.64
2017-09-26T00:07:44.937Z,21.63
2017-09-26T00:08:16.842Z,21.64
2017-09-26T00:08:48.666Z,21.63
2017-09-26T00:09:20.433Z,21.63
2017-09-26T00:09:52.263Z,21.64
2017-09-26T00:10:24.025Z,21.65
2017-09-26T00:10:55.685Z,21.64
2017-09-26T00:11:27.328Z,21.63
2017-09-26T00:11:59.258Z,21.63
2017-09-26T00:12:31.104Z,21.62
2017-09-26T00:13:02.753Z,21.63
2017-09-26T00:13:34.400Z,21.63
2017-09-26T00:14:06.088Z,21.64
2017-09-26T00:14:37.735Z,21.63
2017-09-26T00:15:09.415Z,21.63
2017-09-26T00:15:41.069Z,21.63
2017-09-26T00:16:12.717Z,21.63
2017-09-26T00:16:44.358Z,21.62
2017-09-26T00:17:16.002Z,21.62
2017-09-26T00:17:47.654Z,21.62
2017-09-26T00:18:19.297Z,21.62
2017-09-26T00:18:51.217Z,21.62
2017-09-26T00:19:22.865Z,21.62
2017-09-26T00:19:54.513Z,21.62
2017-09-26T00:20:26.161Z,21.62
2017-09-26T00:20:57.809Z,21.61
2017-09-26T00:21:29.456Z,21.62
2017-09-26T00:22:01.101Z,21.61
2017-09-26T00:22:32.745Z,21.62
2017-09-26T00:23:04.385Z,21.61
2017-09-26T00:23:36.034Z,21.61
2017-09-26T00:24:07.945Z,21.60
2017-09-26T00:24:39.593Z,21.60
2017-09-26T00:25:11.428Z,21.60
2017-09-26T00:25:43.178Z,21.59
2017-09-26T00:26:14.825Z,21.60
2017-09-26T00:26:46.469Z,21.58
2017-09-26T00:27:18.117Z,21.59
2017-09-26T00:27:49.765Z,21.58
2017-09-26T00:28:21.418Z,21.59
2017-09-26T00:28:53.061Z,21.58
2017-09-26T00:29:24.976Z,21.58
2017-09-26T00:29:56.624Z,21.58
2017-09-26T00:30:28.265Z,21.57
2017-09-26T00:30:59.913Z,21.57
2017-09-26T00:31:31.564Z,21.57
2017-09-26T00:32:03.209Z,21.58
2017-09-26T00:32:34.854Z,21.58
2017-09-26T00:33:06.502Z,21.59
2017-09-26T00:33:38.725Z,21.57
2017-09-26T00:34:10.990Z,21.56
2017-09-26T00:34:44.464Z,21.56
2017-09-26T00:35:16.130Z,21.56
2017-09-26T00:35:47.818Z,21.58
2017-09-26T00:36:19.709Z,21.57
2017-09-26T00:36:51.365Z,21.58
2017-09-26T00:37:23.013Z,21.58
2017-09-26T00:37:54.933Z,21.58
2017-09-26T00:38:27.679Z,21.57
2017-09-26T00:38:59.445Z,21.56
2017-09-26T00:39:31.106Z,21.56
2017-09-26T00:40:02.753Z,21.57
2017-09-26T00:40:34.405Z,21.57
2017-09-26T00:41:06.057Z,21.57
2017-09-26T00:41:37.712Z,21.56
2017-09-26T00:42:09.606Z,21.57
2017-09-26T00:42:41.273Z,21.57
2017-09-26T00:43:12.913Z,21.57
2017-09-26T00:43:44.561Z,21.55
2017-09-26T00:44:16.205Z,21.56
2017-09-26T00:44:47.849Z,21.55
2017-09-26T00:45:19.493Z,21.56
2017-09-26T00:45:51.133Z,21.55
2017-09-26T00:46:23.229Z,21.55
2017-09-26T00:46:54.995Z,21.56
2017-09-26T00:47:26.753Z,21.57
2017-09-26T00:47:58.402Z,21.57
2017-09-26T00:48:30.046Z,21.57
2017-09-26T00:49:01.693Z,21.56
2017-09-26T00:49:33.509Z,21.57
2017-09-26T00:50:05.157Z,21.57
2017-09-26T00:50:36.806Z,21.57
2017-09-26T00:51:08.454Z,21.55
2017-09-26T00:51:40.387Z,21.55
2017-09-26T00:52:12.336Z,21.54
2017-09-26T00:52:43.985Z,21.55
2017-09-26T00:53:15.633Z,21.55
2017-09-26T00:53:47.569Z,21.55
2017-09-26T00:54:19.433Z,21.54
2017-09-26T00:54:51.081Z,21.54
2017-09-26T00:55:22.826Z,21.54
2017-09-26T00:55:54.472Z,21.54
2017-09-26T00:56:26.393Z,21.54
2017-09-26T00:56:58.341Z,21.54
2017-09-26T00:57:30.005Z,21.53
2017-09-26T00:58:01.848Z,21.54
2017-09-26T00:58:33.499Z,21.54
2017-09-26T00:59:05.149Z,21.52
2017-09-26T00:59:36.799Z,21.52
2017-09-26T01:00:08.461Z,21.52
2017-09-26T01:00:40.141Z,21.53
2017-09-26T01:01:15.471Z,21.54
2017-09-26T01:01:47.129Z,21.52
2017-09-26T01:02:19.061Z,21.53
2017-09-26T01:02:50.713Z,21.52
2017-09-26T01:03:27.261Z,21.51
2017-09-26T01:04:02.896Z,21.52
2017-09-26T01:04:34.561Z,21.52
2017-09-26T01:05:24.306Z,21.51
2017-09-26T01:06:08.526Z,21.53
2017-09-26T01:06:45.850Z,21.52
2017-09-26T01:07:32.409Z,21.52
2017-09-26T01:08:04.066Z,21.52
2017-09-26T01:08:35.772Z,21.52
2017-09-26T01:09:07.614Z,21.51
2017-09-26T01:09:39.283Z,21.51
2017-09-26T01:10:11.232Z,21.51
2017-09-26T01:10:42.881Z,21.49
2017-09-26T01:11:14.526Z,21.49
2017-09-26T01:11:46.174Z,21.48
2017-09-26T01:12:17.817Z,21.48
2017-09-26T01:12:49.465Z,21.47
2017-09-26T01:13:21.110Z,21.47
2017-09-26T01:13:53.006Z,21.46
2017-09-26T01:14:24.672Z,21.45
2017-09-26T01:14:56.624Z,21.46
2017-09-26T01:15:28.273Z,21.47
2017-09-26T01:15:59.921Z,21.46
2017-09-26T01:16:31.565Z,21.45
2017-09-26T01:17:03.213Z,21.45
2017-09-26T01:17:34.857Z,21.44
2017-09-26T01:18:06.502Z,21.44
2017-09-26T01:18:38.145Z,21.44
2017-09-26T01:19:09.881Z,21.44
2017-09-26T01:19:41.529Z,21.43
2017-09-26T01:20:13.186Z,21.43
2017-09-26T01:20:44.838Z,21.42
2017-09-26T01:21:16.490Z,21.43
2017-09-26T01:21:48.145Z,21.44
2017-09-26T01:22:19.924Z,21.45
2017-09-26T01:22:51.848Z,21.45
2017-09-26T01:23:23.509Z,21.45
2017-09-26T01:23:55.458Z,21.46
2017-09-26T01:24:27.153Z,21.46
2017-09-26T01:24:58.827Z,21.47
2017-09-26T01:25:30.690Z,21.46
2017-09-26T01:26:02.342Z,21.45
2017-09-26T01:26:34.002Z,21.45
2017-09-26T01:27:05.657Z,21.45
2017-09-26T01:27:37.305Z,21.45
2017-09-26T01:28:08.957Z,21.46
2017-09-26T01:28:40.807Z,21.45
2017-09-26T01:29:12.490Z,21.44
2017-09-26T01:29:44.177Z,21.44
2017-09-26T01:30:15.817Z,21.44
2017-09-26T01:30:49.476Z,21.45
2017-09-26T01:31:22.131Z,21.45
2017-09-26T01:31:53.817Z,21.43
2017-09-26T01:32:25.466Z,21.43
2017-09-26T01:32:57.114Z,21.43
2017-09-26T01:33:28.761Z,21.43
2017-09-26T01:34:00.950Z,21.44
2017-09-26T01:34:32.904Z,21.44
2017-09-26T01:35:04.557Z,21.46
2017-09-26T01:35:36.252Z,21.46
2017-09-26T01:36:08.134Z,21.46
2017-09-26T01:36:39.784Z,21.46
2017-09-26T01:37:11.433Z,21.45
2017-09-26T01:37:43.085Z,21.45
2017-09-26T01:38:14.766Z,21.44
2017-09-26T01:38:46.604Z,21.45
2017-09-26T01:39:18.253Z,21.45
2017-09-26T01:39:49.937Z,21.44
2017-09-26T01:40:21.886Z,21.44
2017-09-26T01:40:53.573Z,21.43
2017-09-26T01:41:25.217Z,21.43
2017-09-26T01:41:56.869Z,21.42
2017-09-26T01:42:28.761Z,21.42
2017-09-26T01:43:00.710Z,21.42
2017-09-26T01:43:32.662Z,21.41
2017-09-26T01:44:04.309Z,21.42
2017-09-26T01:44:35.988Z,21.41
2017-09-26T01:45:07.886Z,21.40
2017-09-26T01:45:39.843Z,21.40
2017-09-26T01:46:11.705Z,21.41
2017-09-26T01:46:43.349Z,21.40
2017-09-26T01:47:14.994Z,21.40
2017-09-26T01:47:46.640Z,21.40
2017-09-26T01:48:18.359Z,21.38
2017-09-26T01:48:50.009Z,21.38
2017-09-26T01:49:21.657Z,21.35
2017-09-26T01:49:53.309Z,21.39
2017-09-26T01:50:24.956Z,21.39
2017-09-26T01:50:56.792Z,21.39
2017-09-26T01:51:28.453Z,21.38
2017-09-26T01:52:00.109Z,21.38
2017-09-26T01:52:31.800Z,21.37
2017-09-26T01:53:03.453Z,21.36
2017-09-26T01:53:35.392Z,21.36
2017-09-26T01:54:07.234Z,21.36
2017-09-26T01:54:38.889Z,21.37
2017-09-26T01:55:10.538Z,21.37
2017-09-26T01:55:42.194Z,21.36
2017-09-26T01:56:13.908Z,21.36
2017-09-26T01:56:47.522Z,21.36
2017-09-26T01:57:20.221Z,21.36
2017-09-26T01:57:54.486Z,21.37
2017-09-26T01:58:42.902Z,21.37
2017-09-26T01:59:14.557Z,21.37
2017-09-26T01:59:47.104Z,21.37
2017-09-26T02:00:19.057Z,21.37
2017-09-26T02:00:51.073Z,21.35
2017-09-26T02:01:22.724Z,21.36
2017-09-26T02:01:55.439Z,21.36
2017-09-26T02:02:27.185Z,21.35
2017-09-26T02:02:58.830Z,21.35
2017-09-26T02:03:30.477Z,21.36
2017-09-26T02:04:02.117Z,21.35
2017-09-26T02:04:34.061Z,21.36
2017-09-26T02:05:05.709Z,21.35
2017-09-26T02:05:37.352Z,21.34
2017-09-26T02:06:09.002Z,21.35
2017-09-26T02:06:40.658Z,21.35
2017-09-26T02:07:12.545Z,21.36
2017-09-26T02:07:44.501Z,21.36
2017-09-26T02:08:16.149Z,21.35
2017-09-26T02:08:48.117Z,21.36
2017-09-26T02:09:19.765Z,21.35
2017-09-26T02:09:51.414Z,21.35
2017-09-26T02:10:23.057Z,21.35
2017-09-26T02:10:54.712Z,21.35
2017-09-26T02:11:26.357Z,21.35
2017-09-26T02:11:58.053Z,21.35
2017-09-26T02:12:31.380Z,21.35
2017-09-26T02:13:03.042Z,21.35
2017-09-26T02:13:34.711Z,21.34
2017-09-26T02:14:07.273Z,21.34
2017-09-26T02:14:39.477Z,21.35
2017-09-26T02:15:11.565Z,21.35
2017-09-26T02:15:44.557Z,21.35
2017-09-26T02:16:16.210Z,21.34
2017-09-26T02:16:48.430Z,21.34
2017-09-26T02:17:22.038Z,21.34
2017-09-26T02:17:54.214Z,21.35
2017-09-26T02:18:25.861Z,21.34
2017-09-26T02:18:57.509Z,21.35
2017-09-26T02:19:29.225Z,21.36
2017-09-26T02:20:00.877Z,21.35
2017-09-26T02:20:32.521Z,21.35
2017-09-26T02:21:04.169Z,21.35
2017-09-26T02:21:35.810Z,21.36
2017-09-26T02:22:07.933Z,21.37
2017-09-26T02:22:39.718Z,21.36
2017-09-26T02:23:11.941Z,21.36
2017-09-26T02:23:43.597Z,21.36
2017-09-26T02:24:16.456Z,21.35
2017-09-26T02:24:48.433Z,21.35
2017-09-26T02:25:20.073Z,21.35
2017-09-26T02:25:52.257Z,21.34
2017-09-26T02:26:23.905Z,21.34
2017-09-26T02:26:55.899Z,21.34
2017-09-26T02:27:27.849Z,21.34
2017-09-26T02:27:59.792Z,21.33
2017-09-26T02:28:31.633Z,21.33
2017-09-26T02:29:03.388Z,21.33
2017-09-26T02:29:35.037Z,21.32
2017-09-26T02:30:06.697Z,21.32
2017-09-26T02:30:38.341Z,21.34
2017-09-26T02:31:10.264Z,21.41
2017-09-26T02:31:42.489Z,21.46
2017-09-26T02:32:15.081Z,21.47
2017-09-26T02:32:48.793Z,21.44
2017-09-26T02:33:20.441Z,21.39
2017-09-26T02:33:52.090Z,21.33
2017-09-26T02:34:23.799Z,21.27
2017-09-26T02:34:55.643Z,21.20
2017-09-26T02:35:27.389Z,21.14
2017-09-26T02:35:59.184Z,21.08
2017-09-26T02:36:30.834Z,21.02
2017-09-26T02:37:02.622Z,20.97
2017-09-26T02:37:34.317Z,20.93
2017-09-26T02:38:05.962Z,20.89
2017-09-26T02:38:37.609Z,20.86
2017-09-26T02:39:09.258Z,20.83
2017-09-26T02:39:41.100Z,20.80
2017-09-26T02:40:12.754Z,20.78
2017-09-26T02:40:44.422Z,20.75
2017-09-26T02:41:16.269Z,20.73
2017-09-26T02:41:47.918Z,20.75
2017-09-26T02:42:19.562Z,20.81
2017-09-26T02:42:51.841Z,20.90
2017-09-26T02:43:25.837Z,20.98
2017-09-26T02:43:57.857Z,21.08
2017-09-26T02:44:29.603Z,21.15
2017-09-26T02:45:01.253Z,21.16
2017-09-26T02:45:32.903Z,21.17
2017-09-26T02:46:04.548Z,21.17
2017-09-26T02:46:36.476Z,21.16
2017-09-26T02:47:08.577Z,21.17
2017-09-26T02:47:42.026Z,21.17
2017-09-26T02:48:14.254Z,21.21
2017-09-26T02:48:46.097Z,21.29
2017-09-26T02:49:17.759Z,21.36
2017-09-26T02:49:49.410Z,21.41
2017-09-26T02:50:21.062Z,21.46
2017-09-26T02:50:52.709Z,21.50
2017-09-26T02:51:24.358Z,21.53
2017-09-26T02:51:56.005Z,21.57
2017-09-26T02:52:27.649Z,21.61
2017-09-26T02:52:59.297Z,21.63
2017-09-26T02:53:31.202Z,21.66
2017-09-26T02:54:02.855Z,21.69
2017-09-26T02:54:35.100Z,21.67
2017-09-26T02:55:06.979Z,21.62
2017-09-26T02:55:38.627Z,21.57
2017-09-26T02:56:10.673Z,21.53
2017-09-26T02:56:42.317Z,21.50
2017-09-26T02:57:13.961Z,21.48
2017-09-26T02:57:45.609Z,21.45
2017-09-26T02:58:17.258Z,21.43
2017-09-26T02:58:49.145Z,21.41
2017-09-26T02:59:20.916Z,21.40
2017-09-26T02:59:52.561Z,21.39
2017-09-26T03:00:24.201Z,21.38
2017-09-26T03:00:55.842Z,21.37
2017-09-26T03:01:27.489Z,21.37
2017-09-26T03:01:59.138Z,21.37
2017-09-26T03:02:30.789Z,21.38
2017-09-26T03:03:02.429Z,21.36
2017-09-26T03:03:34.095Z,21.38
2017-09-26T03:04:05.883Z,21.39
2017-09-26T03:04:37.727Z,21.38
2017-09-26T03:05:09.385Z,21.38
2017-09-26T03:05:41.033Z,21.38
2017-09-26T03:06:12.756Z,21.39
2017-09-26T03:06:44.706Z,21.39
2017-09-26T03:07:16.609Z,21.39
2017-09-26T03:07:48.305Z,21.39
2017-09-26T03:08:19.956Z,21.39
2017-09-26T03:08:51.605Z,21.39
2017-09-26T03:09:23.249Z,21.39
2017-09-26T03:09:54.889Z,21.40
2017-09-26T03:10:26.529Z,21.41
2017-09-26T03:10:58.344Z,21.41
2017-09-26T03:11:30.040Z,21.42
2017-09-26T03:12:01.685Z,21.41
2017-09-26T03:12:33.334Z,21.41
2017-09-26T03:13:04.985Z,21.42
2017-09-26T03:13:36.665Z,21.41
2017-09-26T03:14:08.352Z,21.42
2017-09-26T03:14:39.997Z,21.41
2017-09-26T03:15:11.649Z,21.41
2017-09-26T03:15:43.293Z,21.40
2017-09-26T03:16:15.182Z,21.41
2017-09-26T03:16:46.834Z,21.39
2017-09-26T03:17:18.493Z,21.39
2017-09-26T03:17:50.137Z,21.39
2017-09-26T03:18:21.814Z,21.38
2017-09-26T03:18:53.465Z,21.38
2017-09-26T03:19:25.341Z,21.37
2017-09-26T03:19:56.993Z,21.37
2017-09-26T03:20:28.642Z,21.36
2017-09-26T03:21:00.286Z,21.36
2017-09-26T03:21:31.936Z,21.36
2017-09-26T03:22:03.583Z,21.36
2017-09-26T03:22:35.225Z,21.36
2017-09-26T03:23:06.865Z,21.34
2017-09-26T03:23:38.549Z,21.33
2017-09-26T03:24:10.237Z,21.33
2017-09-26T03:24:41.881Z,21.33
2017-09-26T03:25:13.525Z,21.33
2017-09-26T03:25:45.218Z,21.33
2017-09-26T03:26:16.992Z,21.32
2017-09-26T03:26:48.649Z,21.31
2017-09-26T03:27:20.289Z,21.32
2017-09-26T03:27:51.933Z,21.31
2017-09-26T03:28:23.573Z,21.30
2017-09-26T03:28:55.222Z,21.29
2017-09-26T03:29:26.869Z,21.27
2017-09-26T03:29:58.795Z,21.27
2017-09-26T03:30:30.635Z,21.26
2017-09-26T03:31:02.294Z,21.28
2017-09-26T03:31:33.945Z,21.27
2017-09-26T03:32:05.600Z,21.24
2017-09-26T03:32:37.246Z,21.25
2017-09-26T03:33:08.889Z,21.24
2017-09-26T03:33:40.597Z,21.24
2017-09-26T03:34:12.258Z,21.23
2017-09-26T03:34:43.914Z,21.22
2017-09-26T03:35:15.569Z,21.23
2017-09-26T03:35:47.220Z,21.23
2017-09-26T03:36:19.110Z,21.21
2017-09-26T03:36:50.773Z,21.20
2017-09-26T03:37:22.433Z,21.19
2017-09-26T03:37:54.094Z,21.19
2017-09-26T03:38:25.934Z,21.19
2017-09-26T03:38:57.638Z,21.18
2017-09-26T03:39:29.333Z,21.18
2017-09-26T03:40:01.975Z,21.18
2017-09-26T03:40:33.630Z,21.17
2017-09-26T03:41:05.278Z,21.18
2017-09-26T03:41:36.936Z,21.17
2017-09-26T03:42:08.707Z,21.16
2017-09-26T03:42:40.588Z,21.15
2017-09-26T03:43:12.234Z,21.15
2017-09-26T03:43:43.878Z,21.15
2017-09-26T03:44:15.525Z,21.13
2017-09-26T03:44:47.414Z,21.13
2017-09-26T03:45:19.093Z,21.12
2017-09-26T03:45:50.743Z,21.12
2017-09-26T03:46:22.456Z,21.11
2017-09-26T03:46:54.157Z,21.11
2017-09-26T03:47:25.801Z,21.11
2017-09-26T03:47:57.689Z,21.10
2017-09-26T03:48:29.673Z,21.09
2017-09-26T03:49:01.321Z,21.09
2017-09-26T03:49:33.540Z,21.08
2017-09-26T03:50:05.417Z,21.08
2017-09-26T03:50:37.061Z,21.07
2017-09-26T03:51:09.078Z,21.07
2017-09-26T03:51:40.725Z,21.06
2017-09-26T03:52:12.612Z,21.07
2017-09-26T03:52:44.311Z,21.07
2017-09-26T03:53:16.101Z,21.05
2017-09-26T03:53:47.902Z,21.05
2017-09-26T03:54:19.780Z,21.04
2017-09-26T03:54:51.430Z,21.04
2017-09-26T03:55:23.091Z,21.03
2017-09-26T03:55:54.733Z,21.04
2017-09-26T03:56:26.598Z,21.03
2017-09-26T03:56:58.366Z,21.03
2017-09-26T03:57:30.221Z,21.03
2017-09-26T03:58:02.949Z,21.02
2017-09-26T03:58:34.829Z,21.03
2017-09-26T03:59:06.489Z,21.03
2017-09-26T03:59:38.141Z,21.03
2017-09-26T04:00:09.794Z,21.02
2017-09-26T04:00:41.453Z,21.02
2017-09-26T04:01:13.345Z,21.02
2017-09-26T04:01:45.258Z,21.02
2017-09-26T04:02:16.941Z,21.02
2017-09-26T04:02:48.805Z,21.01
2017-09-26T04:03:20.459Z,21.00
2017-09-26T04:03:52.113Z,21.01
2017-09-26T04:05:02.748Z,21.00
2017-09-26T04:05:35.082Z,21.00
2017-09-26T04:06:07.031Z,20.99
2017-09-26T04:06:38.980Z,20.98
2017-09-26T04:07:10.929Z,20.98
2017-09-26T04:07:42.879Z,20.98
2017-09-26T04:08:14.530Z,20.98
2017-09-26T04:08:46.174Z,20.97
2017-09-26T04:09:18.373Z,20.97
2017-09-26T04:09:50.501Z,20.98
2017-09-26T04:10:22.145Z,20.96
2017-09-26T04:10:53.785Z,20.96
2017-09-26T04:11:25.425Z,20.96
2017-09-26T04:11:57.069Z,20.95
2017-09-26T04:12:28.718Z,20.95
2017-09-26T04:13:00.395Z,20.94
2017-09-26T04:13:33.054Z,20.94
2017-09-26T04:14:07.047Z,20.94
2017-09-26T04:14:38.697Z,20.94
2017-09-26T04:15:11.545Z,20.94
2017-09-26T04:15:44.099Z,20.93
2017-09-26T04:16:16.178Z,20.92
2017-09-26T04:16:47.830Z,20.92
2017-09-26T04:17:19.496Z,20.92
2017-09-26T04:17:51.335Z,20.93
2017-09-26T04:18:23.090Z,20.92
2017-09-26T04:18:54.737Z,20.91
2017-09-26T04:19:26.421Z,20.91
2017-09-26T04:19:58.072Z,20.92
2017-09-26T04:20:29.717Z,20.91
2017-09-26T04:21:01.358Z,20.90
2017-09-26T04:21:33.013Z,20.90
2017-09-26T04:22:04.893Z,20.90
2017-09-26T04:22:36.589Z,20.90
2017-09-26T04:23:08.483Z,20.89
2017-09-26T04:23:40.133Z,20.89
2017-09-26T04:24:11.783Z,20.89
2017-09-26T04:24:43.425Z,20.89
2017-09-26T04:25:15.081Z,20.89
2017-09-26T04:25:46.721Z,20.88
2017-09-26T04:26:18.366Z,20.88
2017-09-26T04:26:50.009Z,20.88
2017-09-26T04:27:21.707Z,20.88
2017-09-26T04:27:53.565Z,20.87
2017-09-26T04:28:25.219Z,20.87
2017-09-26T04:28:56.861Z,20.86
2017-09-26T04:29:28.509Z,20.87
2017-09-26T04:30:00.153Z,20.86
2017-09-26T04:30:31.801Z,20.86
2017-09-26T04:31:04.361Z,20.86
2017-09-26T04:31:36.010Z,20.85
2017-09-26T04:32:07.653Z,20.85
2017-09-26T04:32:39.341Z,20.86
2017-09-26T04:33:11.213Z,20.86
2017-09-26T04:33:43.163Z,20.85
2017-09-26T04:34:14.813Z,20.85
2017-09-26T04:34:46.465Z,20.85
2017-09-26T04:35:18.113Z,20.85
2017-09-26T04:35:49.759Z,20.84
2017-09-26T04:36:21.401Z,20.84
2017-09-26T04:36:53.042Z,20.83
2017-09-26T04:37:24.928Z,20.83
2017-09-26T04:37:56.605Z,20.83
2017-09-26T04:38:28.252Z,20.82
2017-09-26T04:38:59.941Z,20.82
2017-09-26T04:39:31.581Z,20.82
2017-09-26T04:40:03.229Z,20.83
2017-09-26T04:40:34.873Z,20.82
2017-09-26T04:41:06.521Z,20.82
2017-09-26T04:41:38.405Z,20.82
2017-09-26T04:42:10.354Z,20.79
2017-09-26T04:42:42.013Z,20.81
2017-09-26T04:43:13.669Z,20.81
2017-09-26T04:43:45.316Z,20.81
2017-09-26T04:44:16.963Z,20.80
2017-09-26T04:44:48.613Z,20.80
2017-09-26T04:45:20.265Z,20.80
2017-09-26T04:45:51.921Z,20.80
2017-09-26T04:46:23.797Z,20.79
2017-09-26T04:46:55.446Z,20.79
2017-09-26T04:47:27.387Z,20.79
2017-09-26T04:47:59.037Z,20.79
2017-09-26T04:48:30.681Z,20.78
2017-09-26T04:49:02.339Z,20.78
2017-09-26T04:49:33.989Z,20.78
2017-09-26T04:50:05.638Z,20.78
2017-09-26T04:50:37.285Z,20.78
2017-09-26T04:51:08.938Z,20.77
2017-09-26T04:51:40.585Z,20.77
2017-09-26T04:52:12.230Z,20.77
2017-09-26T04:52:43.926Z,20.77
2017-09-26T04:53:15.574Z,20.76
2017-09-26T04:53:47.223Z,20.76
2017-09-26T04:54:18.869Z,20.76
2017-09-26T04:54:50.514Z,20.76
2017-09-26T04:55:22.323Z,20.75
2017-09-26T04:55:53.977Z,20.75
2017-09-26T04:56:25.629Z,20.75
2017-09-26T04:56:57.269Z,20.75
2017-09-26T04:57:28.913Z,20.75
2017-09-26T04:58:00.556Z,20.75
2017-09-26T04:58:32.246Z,20.74
2017-09-26T04:59:04.124Z,20.74
2017-09-26T04:59:35.988Z,20.74
2017-09-26T05:00:07.638Z,20.73
2017-09-26T05:00:39.358Z,20.74
2017-09-26T05:01:11.009Z,20.73
2017-09-26T05:01:42.661Z,20.74
2017-09-26T05:02:14.305Z,20.73
2017-09-26T05:02:45.953Z,20.73
2017-09-26T05:03:17.602Z,20.73
2017-09-26T05:03:49.248Z,20.73
2017-09-26T05:04:20.894Z,20.72
2017-09-26T05:04:52.553Z,20.73
2017-09-26T05:05:24.201Z,20.72
2017-09-26T05:05:55.886Z,20.72
2017-09-26T05:06:27.529Z,20.72
2017-09-26T05:06:59.176Z,20.71
2017-09-26T05:07:30.873Z,20.69
2017-09-26T05:08:02.652Z,20.72
2017-09-26T05:08:34.313Z,20.71
2017-09-26T05:09:05.958Z,20.70
2017-09-26T05:09:37.602Z,20.71
2017-09-26T05:10:09.267Z,20.71
2017-09-26T05:10:40.914Z,20.71
2017-09-26T05:11:12.563Z,20.71
2017-09-26T05:11:44.403Z,20.71
2017-09-26T05:12:16.049Z,20.71
2017-09-26T05:12:47.745Z,20.71
2017-09-26T05:13:19.393Z,20.70
2017-09-26T05:13:51.041Z,20.70
2017-09-26T05:14:22.681Z,20.70
2017-09-26T05:14:54.321Z,20.70
2017-09-26T05:15:26.143Z,20.71
2017-09-26T05:15:57.894Z,20.71
2017-09-26T05:16:29.545Z,20.70
2017-09-26T05:17:01.193Z,20.70
2017-09-26T05:17:32.838Z,20.70
2017-09-26T05:18:04.734Z,20.70
2017-09-26T05:18:36.410Z,20.71
2017-09-26T05:19:08.359Z,20.70
2017-09-26T05:19:40.278Z,20.70
2017-09-26T05:20:11.947Z,20.71
2017-09-26T05:20:43.825Z,20.72
2017-09-26T05:21:15.473Z,20.72
2017-09-26T05:21:47.118Z,20.72
2017-09-26T05:22:18.757Z,20.73
2017-09-26T05:22:50.404Z,20.74
2017-09-26T05:23:22.418Z,20.75
2017-09-26T05:23:54.028Z,20.75
2017-09-26T05:24:25.699Z,20.76
2017-09-26T05:24:57.651Z,20.76
2017-09-26T05:25:29.597Z,20.77
2017-09-26T05:26:01.547Z,20.78
2017-09-26T05:26:33.197Z,20.78
2017-09-26T05:27:04.842Z,20.79
2017-09-26T05:27:36.490Z,20.80
2017-09-26T05:28:08.133Z,20.81
2017-09-26T05:28:39.823Z,20.82
2017-09-26T05:29:11.522Z,20.83
2017-09-26T05:29:43.165Z,20.84
2017-09-26T05:30:14.805Z,20.84
2017-09-26T05:30:46.449Z,20.85
2017-09-26T05:31:18.089Z,20.85
2017-09-26T05:31:49.734Z,20.85
2017-09-26T05:32:21.377Z,20.86
2017-09-26T05:32:53.017Z,20.86
2017-09-26T05:33:24.693Z,20.86
2017-09-26T05:33:56.484Z,20.86
2017-09-26T05:34:28.360Z,20.86
2017-09-26T05:35:00.013Z,20.87
2017-09-26T05:35:31.657Z,20.88
2017-09-26T05:36:03.305Z,20.88
2017-09-26T05:36:35.009Z,20.88
2017-09-26T05:37:06.661Z,20.90
2017-09-26T05:37:38.305Z,20.91
2017-09-26T05:38:09.953Z,20.92
2017-09-26T05:38:41.597Z,20.93
2017-09-26T05:39:13.397Z,20.93
2017-09-26T05:39:45.158Z,20.93
2017-09-26T05:40:17.094Z,20.93
2017-09-26T05:40:48.750Z,20.92
2017-09-26T05:41:20.398Z,20.92
2017-09-26T05:41:52.042Z,20.92
2017-09-26T05:42:23.693Z,20.94
2017-09-26T05:42:55.353Z,20.94
2017-09-26T05:43:27.270Z,20.93
2017-09-26T05:43:58.924Z,20.93
2017-09-26T05:44:30.568Z,20.92
2017-09-26T05:45:02.210Z,20.91
2017-09-26T05:45:33.861Z,20.92
2017-09-26T05:46:05.702Z,20.91
2017-09-26T05:46:37.349Z,20.91
2017-09-26T05:47:08.989Z,20.90
2017-09-26T05:47:40.629Z,20.91
2017-09-26T05:48:12.313Z,20.90
2017-09-26T05:48:43.992Z,20.90
2017-09-26T05:49:15.642Z,20.90
2017-09-26T05:49:47.286Z,20.91
2017-09-26T05:50:18.937Z,20.90
2017-09-26T05:50:50.577Z,20.89
2017-09-26T05:51:22.226Z,20.89
2017-09-26T05:51:54.110Z,20.89
2017-09-26T05:52:25.791Z,20.88
2017-09-26T05:52:57.440Z,20.89
2017-09-26T05:53:29.089Z,20.88
2017-09-26T05:54:00.738Z,20.87
2017-09-26T05:54:32.393Z,20.87
2017-09-26T05:55:04.042Z,20.87
2017-09-26T05:55:35.690Z,20.87
2017-09-26T05:56:07.337Z,20.88
2017-09-26T05:56:38.989Z,20.87
2017-09-26T05:57:10.682Z,20.87
2017-09-26T05:57:42.333Z,20.87
2017-09-26T05:58:13.981Z,20.86
2017-09-26T05:58:45.632Z,20.86
2017-09-26T05:59:17.278Z,20.86
2017-09-26T05:59:48.921Z,20.85
2017-09-26T06:00:20.570Z,20.85
2017-09-26T06:00:52.222Z,20.85
2017-09-26T06:01:23.870Z,20.84
2017-09-26T06:01:55.654Z,20.84
2017-09-26T06:02:27.343Z,20.84
2017-09-26T06:02:59.249Z,20.84
2017-09-26T06:03:30.902Z,20.83
2017-09-26T06:04:02.549Z,20.84
2017-09-26T06:04:34.478Z,20.83
2017-09-26T06:05:06.321Z,20.83
2017-09-26T06:05:37.977Z,20.83
2017-09-26T06:06:09.621Z,20.82
2017-09-26T06:06:41.269Z,20.82
2017-09-26T06:07:12.913Z,20.81
2017-09-26T06:07:44.565Z,20.80
2017-09-26T06:08:16.210Z,20.80
2017-09-26T06:08:47.852Z,20.79
2017-09-26T06:09:19.498Z,20.79
2017-09-26T06:09:51.203Z,20.79
2017-09-26T06:10:22.854Z,20.78
2017-09-26T06:10:54.497Z,20.79
2017-09-26T06:11:26.142Z,20.78
2017-09-26T06:11:57.785Z,20.79
2017-09-26T06:12:29.434Z,20.77
2017-09-26T06:13:01.082Z,20.77
2017-09-26T06:13:32.726Z,20.76
2017-09-26T06:14:04.372Z,20.76
2017-09-26T06:14:36.017Z,20.76
2017-09-26T06:15:07.891Z,20.75
2017-09-26T06:15:39.573Z,20.75
2017-09-26T06:16:11.222Z,20.75
2017-09-26T06:16:42.869Z,20.75
2017-09-26T06:17:14.513Z,20.74
2017-09-26T06:17:46.157Z,20.74
2017-09-26T06:18:18.088Z,20.74
2017-09-26T06:18:50.039Z,20.73
2017-09-26T06:19:21.987Z,20.72
2017-09-26T06:19:53.936Z,20.72
2017-09-26T06:20:25.626Z,20.72
2017-09-26T06:20:57.277Z,20.72
2017-09-26T06:21:28.921Z,20.72
2017-09-26T06:22:00.695Z,20.72
2017-09-26T06:22:32.453Z,20.71
2017-09-26T06:23:04.295Z,20.71
2017-09-26T06:23:36.043Z,20.71
2017-09-26T06:24:07.737Z,20.72
2017-09-26T06:24:39.537Z,20.71
2017-09-26T06:25:11.185Z,20.71
2017-09-26T06:25:42.829Z,20.70
2017-09-26T06:26:14.560Z,20.70
2017-09-26T06:26:46.515Z,20.70
2017-09-26T06:27:18.162Z,20.70
2017-09-26T06:27:49.805Z,20.71
2017-09-26T06:28:21.449Z,20.71
2017-09-26T06:28:53.097Z,20.70
2017-09-26T06:29:24.745Z,20.70
2017-09-26T06:29:56.414Z,20.70
2017-09-26T06:30:28.062Z,20.70
2017-09-26T06:30:59.709Z,20.69
2017-09-26T06:31:31.408Z,20.70
2017-09-26T06:32:03.057Z,20.70
2017-09-26T06:32:34.702Z,20.69
2017-09-26T06:33:06.349Z,20.70
2017-09-26T06:33:37.997Z,20.69
2017-09-26T06:34:09.637Z,20.70
2017-09-26T06:34:41.297Z,20.70
2017-09-26T06:35:12.945Z,20.70
2017-09-26T06:35:44.729Z,20.70
2017-09-26T06:36:16.554Z,20.70
2017-09-26T06:36:48.263Z,20.68
2017-09-26T06:37:19.905Z,20.70
2017-09-26T06:37:51.549Z,20.69
2017-09-26T06:38:23.200Z,20.70
2017-09-26T06:38:54.849Z,20.69
2017-09-26T06:39:26.530Z,20.69
2017-09-26T06:39:58.479Z,20.69
2017-09-26T06:40:30.428Z,20.69
2017-09-26T06:41:02.377Z,20.68
2017-09-26T06:41:34.058Z,20.69
2017-09-26T06:42:05.968Z,20.68
2017-09-26T06:42:37.811Z,20.68
2017-09-26T06:43:09.556Z,20.68
2017-09-26T06:43:41.508Z,20.68
2017-09-26T06:44:13.163Z,20.68
2017-09-26T06:44:44.817Z,20.68
2017-09-26T06:45:16.457Z,20.67
2017-09-26T06:45:48.097Z,20.66
2017-09-26T06:46:19.737Z,20.67
2017-09-26T06:46:51.385Z,20.67
2017-09-26T06:47:23.309Z,20.66
2017-09-26T06:47:55.145Z,20.66
2017-09-26T06:48:26.901Z,20.66
2017-09-26T06:48:58.549Z,20.65
2017-09-26T06:49:30.196Z,20.65
2017-09-26T06:50:01.837Z,20.65
2017-09-26T06:50:33.488Z,20.65
2017-09-26T06:51:05.134Z,20.64